Latest Coastal Weather Observations for Bairnsdale

IDV60701

Issued at 7:02 am EDT Tuesday 20 November 2018 (issued every 10 minutes, with the page automatically refreshed every 10 minutes)

About coastal observations | Map of coastal stations | Coastal observations for VIC | Marine services | Other Formats
Station Details ID: 085279 Name: BAIRNSDALE AIRPORT Lat: -37.88 Lon: 147.57 Height: 49.4 m
Data from the previous 72 hours. | See also: Recent months at Bairnsdale
Date/Time
EDT
Wind Sea
Height
m
Swell Vis
km
Cloud Weather Temp
°C
Press
hPa
Rain since
9am
mm
Dir  Spd
kts
Gust
kts
Height
m
Period
s
Dir
20/07:00am NE 6 8 - - - - 10 Clear - 15.5 1009.0 0.0
20/06:30am NNE 5 6 - - - - 10 - - 13.4 1008.9 0.0
20/06:00am NNW 3 3 - - - - 10 - - 10.1 1009.0 0.0
20/05:30am NNE 4 5 - - - - 10 - - 10.9 1009.2 0.0
20/05:00am NNE 4 5 - - - - 10 - - 10.2 1009.4 0.0
20/04:30am NE 3 4 - - - - 10 - - 9.8 1009.5 0.0
20/04:00am CALM 0 0 - - - - 10 - - 10.5 1009.7 0.0
20/03:30am CALM 0 0 - - - - 10 - - 10.8 1010.0 0.0
20/03:00am N 3 5 - - - - 10 - - 11.3 1010.3 0.0
20/02:30am NE 5 7 - - - - 10 - - 12.7 1010.5 0.0
20/02:00am NNE 5 7 - - - - 10 - - 12.9 1011.0 0.0
20/01:30am ENE 2 4 - - - - 10 - - 12.8 1011.4 0.0
20/01:00am N 4 6 - - - - 10 - - 12.8 1012.4 0.0
20/12:30am NW 3 4 - - - - 10 - - 13.4 1012.8 0.0
20/12:00am CALM 0 0 - - - - 10 Partly cloudy - 13.4 1013.4 0.0
 
Date/Time
EDT
Wind Sea
Height
m
Swell Vis
km
Cloud Weather Temp
°C
Press
hPa
Rain since
9am
mm
Dir  Spd
kts
Gust
kts
Height
m
Period
s
Dir
19/11:30pm SW 5 7 - - - - 10 Partly cloudy - 13.3 1013.6 0.0
19/11:00pm WSW 5 7 - - - - 10 - - 13.2 1013.9 0.0
19/10:30pm WSW 4 5 - - - - 10 - - 12.9 1013.9 0.0
19/10:00pm SW 4 5 - - - - 10 Partly cloudy - 13.6 1013.8 0.0
19/09:30pm SSW 5 6 - - - - 10 Partly cloudy - 14.0 1014.0 0.0
19/09:00pm S 5 6 - - - - 10 Mostly clear - 14.5 1013.7 0.0
19/08:30pm SE 6 7 - - - - 10 - - 16.7 1013.4 0.0
19/08:00pm SE 7 8 - - - - 10 - - 17.7 1013.4 0.0
19/07:30pm ESE 7 10 - - - - 10 - - 19.5 1013.3 0.0
19/07:00pm ESE 9 13 - - - - 10 - - 21.0 1013.1 0.0
19/06:30pm ESE 12 15 - - - - 10 - - 22.4 1013.1 0.0
19/06:00pm ESE 12 16 - - - - 10 - - 22.8 1013.1 0.0
19/05:30pm ESE 13 16 - - - - 10 - - 23.3 1013.3 0.0
19/05:00pm ESE 12 16 - - - - 10 - - 24.0 1013.4 0.0
19/04:30pm ESE 15 20 - - - - 10 - - 24.0 1013.4 0.0
19/04:00pm ESE 15 19 - - - - 10 - - 24.1 1013.5 0.0
19/03:30pm ESE 14 17 - - - - 10 - - 24.3 1014.0 0.0
19/03:00pm ESE 14 18 - - - - 10 - - 24.1 1014.4 0.0
19/02:30pm ESE 12 16 - - - - 10 - - 24.7 1014.8 0.0
19/02:00pm SE 13 17 - - - - 10 - - 24.6 1015.1 0.0
19/01:30pm SE 13 16 - - - - 10 - - 23.4 1015.5 0.0
19/01:00pm SE 12 17 - - - - 10 - - 22.8 1016.1 0.0
19/12:30pm ESE 11 15 - - - - 10 - - 22.7 1016.4 0.0
19/12:00pm SE 10 13 - - - - 10 - - 22.1 1016.8 0.0
19/11:30am ESE 8 15 - - - - 10 - - 22.1 1017.1 0.0
19/11:00am ESE 7 9 - - - - 10 - - 22.5 1017.5 0.0
19/10:30am ESE 7 10 - - - - 10 - - 22.0 1017.8 0.0
19/10:00am SE 7 9 - - - - 10 - - 21.1 1018.2 0.0
19/09:30am ESE 5 7 - - - - 10 - - 20.1 1018.3 0.0
19/09:00am E 3 5 - - - - 10 - - 18.4 1018.7 0.0
19/08:30am ENE 4 5 - - - - 10 - - 16.5 1018.8 0.0
19/08:00am NE 4 5 - - - - 10 - - 14.6 1018.8 0.0
19/07:30am N 3 5 - - - - 10 - - 13.0 1018.8 0.0
19/07:00am N 5 6 - - - - 10 Partly cloudy - 11.4 1018.6 0.0
19/06:30am N 3 4 - - - - - Partly cloudy - 10.1 1018.6 0.0
19/06:00am N 1 3 - - - - - Mostly clear - 8.8 1018.4 0.0
19/05:30am N 3 3 - - - - - - - 8.7 1018.3 0.0
19/05:00am NNW 3 3 - - - - - Partly cloudy - 8.0 1018.1 0.0
19/04:30am NNW 4 4 - - - - - - - 8.5 1018.2 0.0
19/04:02am NNW 3 4 - - - - 5 - - 8.6 1018.2 0.0
19/04:01am NNW 3 4 - - - - 6 - - 8.6 1018.2 0.0
19/04:00am NNW 3 4 - - - - 8 - - 8.5 1018.2 0.0
19/03:41am NNW 2 3 - - - - 5 - - 8.9 1018.3 0.0
19/03:30am NNW 2 3 - - - - 10 - - 9.5 1018.3 0.0
19/03:00am CALM 0 0 - - - - 7 - - 9.7 1018.6 0.0
19/02:30am CALM 0 0 - - - - 10 - - 10.1 1018.6 0.0
19/02:00am NW 3 4 - - - - 10 - - 10.4 1018.9 0.0
19/01:30am NW 6 7 - - - - 10 - - 10.9 1019.2 0.0
19/01:00am NW 6 7 - - - - 10 - - 10.6 1019.5 0.0
19/12:30am NW 4 6 - - - - 10 - - 10.1 1019.7 0.0
19/12:00am NW 4 6 - - - - 10 - - 10.6 1020.0 0.0
 
Date/Time
EDT
Wind Sea
Height
m
Swell Vis
km
Cloud Weather Temp
°C
Press
hPa
Rain since
9am
mm
Dir  Spd
kts
Gust
kts
Height
m
Period
s
Dir
18/11:30pm NW 4 5 - - - - 10 - - 11.5 1020.1 0.0
18/11:00pm N 3 5 - - - - 10 - - 12.0 1020.2 0.0
18/10:30pm SE 5 6 - - - - 10 - - 12.7 1020.3 0.0
18/10:00pm E 5 6 - - - - 10 - - 14.6 1020.4 0.0
18/09:30pm E 6 7 - - - - 10 - - 15.1 1020.4 0.0
18/09:00pm E 8 11 - - - - 10 - - 15.7 1020.4 0.0
18/08:30pm E 13 19 - - - - 10 - - 16.1 1020.4 0.0
18/08:00pm E 17 23 - - - - 10 - - 16.3 1020.4 0.0
18/07:32pm E 18 28 - - - - 10 - - 16.9 1020.3 0.0
18/07:30pm E 18 24 - - - - 10 - - 17.0 1020.4 0.0
18/07:00pm E 18 25 - - - - 10 - - 17.6 1020.3 0.0
18/06:30pm E 17 25 - - - - 10 - - 18.3 1020.3 0.0
18/06:08pm E 17 28 - - - - 10 - - 18.8 1020.0 0.0
18/06:00pm E 16 25 - - - - 10 - - 19.3 1019.9 0.0
18/05:30pm ESE 19 25 - - - - 10 - - 20.0 1020.4 0.0
18/05:00pm ESE 19 25 - - - - 10 - - 19.8 1020.4 0.0
18/04:30pm ESE 19 24 - - - - 10 - - 20.2 1020.5 0.0
18/04:00pm ESE 19 25 - - - - 10 - - 20.5 1020.7 0.0
18/03:30pm ESE 19 24 - - - - 10 - - 20.7 1021.0 0.0
18/03:00pm ESE 19 26 - - - - 10 - - 20.5 1021.3 0.0
18/02:30pm ESE 18 25 - - - - 10 - - 20.3 1021.5 0.0
18/02:00pm ESE 18 24 - - - - 10 - - 21.4 1021.8 0.0
18/01:30pm ESE 18 23 - - - - 10 - - 20.9 1022.0 0.0
18/01:00pm ESE 16 22 - - - - 10 - - 20.4 1022.3 0.0
18/12:30pm ESE 16 21 - - - - 10 - - 20.6 1022.6 0.0
18/12:00pm SE 15 20 - - - - 10 - - 20.3 1022.8 0.0
18/11:30am ESE 13 19 - - - - 10 - - 20.3 1023.2 0.0
18/11:00am ESE 13 18 - - - - 10 - - 20.9 1023.4 0.0
18/10:30am E 10 13 - - - - 10 - - 20.1 1023.6 0.0
18/10:00am E 9 13 - - - - 10 - - 19.3 1023.7 0.0
18/09:30am E 10 14 - - - - 10 - - 18.3 1023.8 0.0
18/09:00am ENE 8 10 - - - - 10 - - 16.7 1024.0 0.0
18/08:30am E 5 7 - - - - 10 - - 14.7 1024.0 0.0
18/08:00am ENE 4 6 - - - - 10 - - 12.5 1023.9 0.0
18/07:30am NE 1 4 - - - - 10 - - 10.7 1023.8 0.0
18/07:00am NNE 3 4 - - - - - - - 9.0 1023.4 0.0
18/06:30am CALM 0 0 - - - - - - - 6.7 1023.2 0.0
18/06:00am NNE 3 4 - - - - - Mostly clear - 6.1 1023.0 0.0
18/05:30am NW 4 5 - - - - - - - 5.9 1022.8 0.0
18/05:00am NW 5 6 - - - - - - - 5.3 1022.7 0.0
18/04:30am NNW 3 4 - - - - - Partly cloudy - 6.3 1022.7 0.0
18/04:00am NW 4 5 - - - - - - - 7.3 1022.8 0.0
18/03:30am NW 4 4 - - - - - - - 6.6 1023.1 0.0
18/03:00am NE 2 3 - - - - - - - 7.4 1023.4 0.0
18/02:30am NE 4 5 - - - - - - - 8.9 1023.5 0.0
18/02:00am N 4 5 - - - - - - - 8.4 1024.0 0.0
18/01:30am NE 3 4 - - - - - - - 9.7 1024.3 0.0
18/01:00am NNE 4 4 - - - - - - - 10.5 1024.6 0.0
18/12:30am NE 3 4 - - - - 0.5 - - 8.8 1024.8 0.0
18/12:00am ENE 2 3 - - - - 2 - - 8.5 1025.0 0.0
 
Date/Time
EDT
Wind Sea
Height
m
Swell Vis
km
Cloud Weather Temp
°C
Press
hPa
Rain since
9am
mm
Dir  Spd
kts
Gust
kts
Height
m
Period
s
Dir
17/11:55pm ENE 2 3 - - - - 4 - - 8.4 1025.0 0.0
17/11:30pm ENE 3 3 - - - - 10 - - 10.2 1025.1 0.0
17/11:00pm ENE 1 4 - - - - 10 - - 10.0 1025.1 0.0
17/10:30pm ESE 4 5 - - - - 10 - - 10.8 1025.1 0.0
17/10:00pm ESE 6 6 - - - - 10 - - 12.6 1025.1 0.0
17/09:30pm E 6 7 - - - - 10 - - 13.0 1025.1 0.0
17/09:00pm E 6 7 - - - - 10 - - 13.3 1024.7 0.0
17/08:30pm ESE 6 7 - - - - 10 - - 14.0 1024.5 0.0
17/08:00pm ESE 9 11 - - - - 10 - - 15.4 1024.3 0.0
17/07:30pm E 10 13 - - - - 10 - - 16.3 1024.1 0.0
17/07:00pm ESE 11 15 - - - - 10 - - 17.2 1023.8 0.0
17/06:30pm E 11 16 - - - - 10 - - 17.9 1023.5 0.0
17/06:00pm ESE 12 15 - - - - 10 - - 18.4 1023.3 0.0
17/05:30pm ESE 11 14 - - - - 10 Partly cloudy - 17.9 1023.2 0.0
17/05:00pm SE 10 15 - - - - 10 Partly cloudy - 18.9 1023.2 0.0
17/04:30pm SE 13 17 - - - - 10 Partly cloudy - 18.1 1023.3 0.0
17/04:00pm SSE 13 18 - - - - 10 Partly cloudy - 18.4 1023.3 0.0
17/03:30pm SE 12 16 - - - - 10 Partly cloudy - 18.9 1023.4 0.0
17/03:00pm SE 12 17 - - - - 10 Mostly cloudy - 18.7 1023.4 0.0
17/02:30pm SE 9 15 - - - - 10 Partly cloudy - 19.2 1023.5 0.0
17/02:00pm ESE 7 14 - - - - 10 Partly cloudy - 19.0 1023.6 0.0
17/01:30pm SW 5 7 - - - - 10 Cloudy - 17.4 1023.8 0.0
17/01:00pm SW 7 9 - - - - 10 Partly cloudy - 15.8 1024.1 0.0
17/12:30pm S 7 9 - - - - 10 Partly cloudy - 16.7 1024.3 0.0
17/12:00pm S 8 11 - - - - 10 Cloudy - 16.8 1024.3 0.0
17/11:30am SSW 6 10 - - - - 10 Partly cloudy - 16.8 1024.3 0.0
17/11:00am SSW 6 9 - - - - 10 Partly cloudy - 16.5 1024.3 0.0
17/10:30am W 6 11 - - - - 10 Partly cloudy - 17.0 1024.2 0.0
17/10:00am WSW 7 11 - - - - 10 Partly cloudy - 16.5 1024.3 0.0
17/09:30am SW 8 11 - - - - 10 Partly cloudy - 16.1 1024.3 0.0
17/09:00am WSW 8 11 - - - - 10 Cloudy - 14.8 1024.2 0.0
17/08:30am W 9 12 - - - - 10 Partly cloudy - 13.3 1023.9 0.0
17/08:00am W 11 14 - - - - 10 Cloudy - 12.5 1023.7 0.0
17/07:30am WNW 10 15 - - - - 10 Cloudy - 11.6 1023.4 0.0

Other Formats:

Comma delimited format used in spreadsheet applications
http://www.bom.gov.au/fwo/IDV60701/IDV60701.94912.axf

JavaScript Object Notation format (JSON) in row-major order
http://www.bom.gov.au/fwo/IDV60701/IDV60701.94912.json